Google Maps JavaScript API Example
Pilot Flight Report # 92774 Submitted by : AST003 on 2019-03-13
Date: 2019-03-13Aircraft: Boeing 787-3 Dreamliner
Flight No.: Not AvailableDistance (Nm): 924.57
Departure: NZQN - QueenstownDestination: YMHB - Hobart
 TimeFuelWeightSpeeds  
Out (Taxi)1841Z38688 lbs261990 lbs Flight RulesIFR
Off (Takeoff)1842Z 261742 lbs155 ktsFlight LevelFL330
On (Landing)2124Z 231173 lbs145 ktsVSTD-246 ft/min
In (Ramp)2124Z7838 lbs231140 lbs ZFW223297 lbs
Flight2.70  -  2:4230568 lbs  Pax0
Block2.72  -  2:4330850 lbs  Cargo0
Departure Weather112018Z 28773KT 40SM -RA BKN011 -41/-53 A2991
Destination WeatherYMHB 112124Z 21502KT 50SM FEW020 SCT033 15/14 A2988
Flight Comments